Time;durP1;ratioP1;P1;durP2;ratioP2;P2;SDS_P1;SDS_P2;PMS_P1;PMS_P2;Temp;Humidity;BMP_temperature;BMP_pressure;BME280_temperature;BME280_humidity;BME280_pressure;Samples;Min_cycle;Max_cycle;Signal;HPM_P1;HPM_P2
2022/10/10 00:01:36;;;;;;;13.23;10.07;;;12.60;99.90;;;12.79;74.27;101243.00;5034850;28;19928;-69
2022/10/10 00:04:05;;;;;;;13.57;9.48;;;12.60;99.90;;;12.75;74.28;101230.66;5034847;28;20103;-69
2022/10/10 00:06:34;;;;;;;12.52;9.82;;;12.60;99.90;;;12.52;74.50;101202.50;5034922;28;20152;-69
2022/10/10 00:09:04;;;;;;;13.40;9.60;;;12.60;99.90;;;12.73;74.56;101228.00;5034646;28;20045;-68
2022/10/10 00:11:33;;;;;;;12.87;9.40;;;12.60;99.90;;;12.17;74.74;101135.56;5034717;28;20073;-69
2022/10/10 00:14:03;;;;;;;13.27;9.68;;;12.60;99.90;;;12.44;74.77;101179.56;5035105;28;20045;-68
2022/10/10 00:16:32;;;;;;;13.98;9.27;;;12.60;99.90;;;12.72;74.81;101228.88;5033885;28;20044;-69
2022/10/10 00:19:00;;;;;;;13.27;9.52;;;12.50;99.90;;;12.72;74.66;101225.38;5034396;28;20042;-69
2022/10/10 00:21:29;;;;;;;14.05;10.25;;;12.50;99.90;;;12.71;74.65;101221.84;5034409;28;20042;-69
2022/10/10 00:23:59;;;;;;;14.00;10.05;;;12.50;99.90;;;12.66;74.95;101226.28;5034348;28;20056;-69
2022/10/10 00:26:28;;;;;;;17.40;10.20;;;12.50;99.90;;;12.42;75.28;101182.25;5034433;28;20104;-69
2022/10/10 00:28:57;;;;;;;13.20;9.55;;;12.50;99.90;;;12.66;75.22;101226.28;5034644;28;20045;-69
2022/10/10 00:31:27;;;;;;;12.88;10.13;;;12.50;99.90;;;12.67;75.50;101217.44;5049714;28;20049;-69
2022/10/10 00:33:55;;;;;;;15.05;9.68;;;12.50;99.90;;;12.73;75.40;101217.41;5034276;28;20041;-69
2022/10/10 00:36:24;;;;;;;19.02;9.55;;;12.50;99.90;;;12.80;74.85;101221.75;5033069;28;20140;-69
2022/10/10 00:38:52;;;;;;;12.90;9.70;;;12.60;99.90;;;12.76;75.07;101209.41;5033949;28;20120;-69
2022/10/10 00:41:21;;;;;;;14.52;9.55;;;12.60;99.90;;;12.85;75.00;101219.97;5033981;28;20136;-69
2022/10/10 00:44:05;;;;;;;13.20;9.82;;;12.60;99.90;;;12.86;74.59;101227.00;5034444;28;20045;-69
2022/10/10 00:46:35;;;;;;;12.43;10.02;;;12.60;99.90;;;12.77;74.69;101195.25;5034187;28;20049;-69
2022/10/10 00:49:07;;;;;;;13.73;9.98;;;12.70;99.90;;;12.77;74.55;101187.28;5034524;28;20212;-69
2022/10/10 00:51:35;;;;;;;18.25;10.13;;;12.70;99.90;;;12.67;74.60;101189.13;5033844;28;20068;-69
2022/10/10 00:54:09;;;;;;;14.20;10.15;;;12.60;99.90;;;12.79;74.77;101212.03;5033716;28;20034;-69
2022/10/10 00:56:43;;;;;;;13.85;9.88;;;12.70;99.90;;;12.68;74.58;101192.63;5034103;28;20041;-69
2022/10/10 00:59:12;;;;;;;12.25;9.98;;;12.60;99.90;;;12.81;74.39;101204.06;5033659;28;20120;-69
2022/10/10 01:01:42;;;;;;;15.77;10.75;;;12.60;99.90;;;12.62;74.68;101198.00;5033553;28;20045;-69
2022/10/10 01:04:33;;;;;;;16.58;10.20;;;12.50;99.90;;;12.62;74.72;101203.31;5033956;28;20045;-69
2022/10/10 01:07:07;;;;;;;14.88;10.60;;;12.50;99.90;;;12.17;74.85;101130.25;5033910;28;20045;-70
2022/10/10 01:09:38;;;;;;;15.30;10.23;;;12.50;99.90;;;12.48;75.68;101186.63;5034105;28;20042;-69
2022/10/10 01:12:18;;;;;;;14.57;9.98;;;12.40;99.90;;;12.36;75.75;101152.22;5033507;28;20107;-69
2022/10/10 01:14:58;;;;;;;14.07;10.25;;;12.40;99.90;;;12.55;75.93;101196.28;5048963;28;20107;-69
2022/10/10 01:17:34;;;;;;;15.23;10.33;;;12.40;99.90;;;12.56;75.81;101196.28;5033788;28;20426;-69
2022/10/10 01:20:46;;;;;;;18.15;9.82;;;12.40;99.90;;;12.56;75.67;101190.97;5033645;28;20300;-69
2022/10/10 01:23:46;;;;;;;14.23;10.57;;;12.40;99.90;;;12.54;75.79;101183.94;5033506;28;20057;-69
2022/10/10 01:27:08;;;;;;;16.33;9.90;;;12.40;99.90;;;11.56;75.53;100999.84;5048839;28;20553;-68
2022/10/10 01:29:43;;;;;;;14.98;10.40;;;12.40;99.90;;;12.61;75.61;101201.56;5033077;28;20059;-69
2022/10/10 01:32:16;;;;;;;14.45;9.88;;;12.40;99.90;;;12.52;75.82;101169.78;5033177;28;20072;-69
2022/10/10 01:34:55;;;;;;;14.32;10.07;;;12.40;99.90;;;12.49;75.86;101172.44;5033447;28;20073;-69
2022/10/10 01:37:37;;;;;;;14.68;10.60;;;12.30;99.90;;;12.51;75.83;101168.00;5033335;28;20379;-69
2022/10/10 01:40:14;;;;;;;13.90;11.13;;;12.40;99.90;;;12.46;76.17;101162.75;5033330;28;20083;-69
2022/10/10 01:42:49;;;;;;;14.02;9.90;;;12.30;99.90;;;12.47;76.13;101171.56;5033550;28;20083;-69
2022/10/10 01:45:20;;;;;;;13.75;9.98;;;12.20;99.90;;;12.43;76.40;101153.91;5048623;28;20057;-68
2022/10/10 01:47:49;;;;;;;14.13;10.00;;;12.20;99.90;;;12.20;76.45;101116.06;5048580;28;20103;-68
2022/10/10 01:50:22;;;;;;;15.00;10.13;;;12.30;99.90;;;12.41;76.16;101153.94;5033171;28;20037;-69
2022/10/10 01:53:03;;;;;;;13.25;9.48;;;12.30;99.90;;;12.45;76.57;101160.09;5033105;28;20137;-68
2022/10/10 01:55:51;;;;;;;15.80;10.05;;;12.20;99.90;;;12.41;76.37;101179.56;5032968;28;20372;-69
2022/10/10 01:58:45;;;;;;;14.15;10.15;;;12.30;99.90;;;12.16;76.29;101095.75;5032683;28;20220;-69
2022/10/10 02:01:22;;;;;;;15.27;10.43;;;12.30;99.90;;;12.47;76.31;101142.38;5033049;28;20071;-69
2022/10/10 02:03:59;;;;;;;16.73;10.40;;;12.40;99.90;;;12.63;75.99;101152.88;5033305;28;20041;-67
2022/10/10 02:06:33;;;;;;;14.90;10.27;;;12.40;99.90;;;12.64;75.81;101153.75;5033522;28;20068;-67
2022/10/10 02:09:07;;;;;;;13.10;10.73;;;12.40;99.90;;;12.63;75.78;101162.63;5033130;28;20045;-67
2022/10/10 02:11:39;;;;;;;17.45;10.00;;;12.40;99.90;;;12.62;76.04;101150.22;5033458;28;20046;-67
2022/10/10 02:14:14;;;;;;;14.25;9.77;;;12.40;99.90;;;12.68;75.86;101145.75;5033111;28;20046;-67
2022/10/10 02:16:47;;;;;;;13.50;9.88;;;12.40;99.90;;;12.73;75.57;101147.50;5033621;28;20049;-67
2022/10/10 02:19:19;;;;;;;14.52;10.27;;;12.50;99.90;;;12.76;75.77;101143.03;5032984;28;20050;-67
2022/10/10 02:21:51;;;;;;;13.88;9.77;;;12.50;99.90;;;12.73;75.93;101140.41;5033042;28;20052;-67
2022/10/10 02:24:21;;;;;;;13.45;10.35;;;12.50;99.90;;;12.66;75.95;101134.28;5033600;28;20049;-67
2022/10/10 02:27:01;;;;;;;15.43;10.23;;;12.50;99.90;;;12.66;76.12;101128.97;5032768;28;20049;-67
2022/10/10 02:29:35;;;;;;;14.40;9.95;;;12.40;99.90;;;12.64;76.31;101143.13;5033233;28;20053;-67
2022/10/10 02:32:10;;;;;;;22.23;10.10;;;12.40;99.90;;;12.60;76.50;101130.81;5033172;28;20059;-67
2022/10/10 02:34:43;;;;;;;14.90;10.25;;;12.40;99.90;;;12.52;76.59;101117.56;5032937;28;20056;-67
2022/10/10 02:37:15;;;;;;;12.80;9.40;;;12.40;99.90;;;12.65;76.53;101127.22;5032791;28;20058;-67
2022/10/10 02:39:49;;;;;;;14.00;10.43;;;12.30;99.90;;;12.67;76.72;101138.69;5033789;28;20041;-67
2022/10/10 02:42:21;;;;;;;12.40;9.77;;;12.40;99.90;;;12.70;76.74;101116.53;5036945;28;20052;-67
2022/10/10 02:44:50;;;;;;;15.15;10.45;;;12.40;99.90;;;12.75;76.67;101122.72;5036802;28;20061;-67
2022/10/10 02:47:20;;;;;;;11.40;9.40;;;12.40;99.90;;;12.70;76.71;101117.44;5036807;28;20045;-67
2022/10/10 02:49:48;;;;;;;14.40;10.27;;;12.40;99.90;;;12.68;76.79;101119.22;5037299;28;20045;-67
2022/10/10 02:52:17;;;;;;;12.10;10.00;;;12.40;99.90;;;12.70;77.16;101117.44;5036699;28;20099;-67
2022/10/10 02:54:45;;;;;;;10.98;9.70;;;12.40;99.90;;;12.80;76.95;101122.63;5036921;28;20045;-65
2022/10/10 02:57:13;;;;;;;12.75;9.48;;;12.50;99.90;;;12.74;76.81;101115.63;5036566;28;20041;-65
2022/10/10 02:59:42;;;;;;;12.68;10.77;;;12.40;99.90;;;12.74;77.34;101112.13;5036747;28;20051;-65
2022/10/10 03:02:10;;;;;;;14.27;10.20;;;12.40;99.90;;;12.73;77.04;101111.22;5036495;28;20041;-65
2022/10/10 03:04:40;;;;;;;15.30;10.00;;;12.40;99.90;;;12.78;77.30;101105.84;5036455;28;20049;-65
2022/10/10 03:07:09;;;;;;;14.20;9.23;;;12.40;99.90;;;12.79;76.98;101113.81;5036757;28;20053;-65
2022/10/10 03:09:37;;;;;;;16.75;10.00;;;12.50;99.90;;;12.81;77.14;101108.50;5036342;28;20033;-65
2022/10/10 03:12:05;;;;;;;10.60;9.18;;;12.50;99.90;;;12.74;76.91;101102.34;5036545;28;20045;-65
2022/10/10 03:14:34;;;;;;;19.10;10.15;;;12.40;99.90;;;12.81;77.12;101113.81;5036496;28;20458;-65
2022/10/10 03:17:02;;;;;;;18.73;10.07;;;12.50;99.90;;;12.77;77.03;101099.69;5036473;28;20057;-65
2022/10/10 03:19:30;;;;;;;12.10;9.45;;;12.50;99.90;;;12.81;77.26;101103.19;5036135;28;20517;-65
2022/10/10 03:22:00;;;;;;;11.75;9.40;;;12.50;99.90;;;12.80;77.27;101106.72;5036102;28;20033;-65
2022/10/10 03:24:29;;;;;;;18.88;9.43;;;12.40;99.90;;;12.79;77.13;101097.00;5036066;28;20049;-65
2022/10/10 03:26:57;;;;;;;14.43;9.73;;;12.50;99.90;;;12.88;77.09;101100.44;5036019;28;20055;-65
2022/10/10 03:29:25;;;;;;;13.90;8.93;;;12.50;99.90;;;12.74;77.46;101086.44;5035927;28;20042;-65
2022/10/10 03:31:53;;;;;;;16.20;9.60;;;12.50;99.90;;;12.91;76.90;101104.84;5036222;28;20037;-65
2022/10/10 03:34:21;;;;;;;14.90;9.45;;;12.50;99.90;;;12.91;77.21;101102.19;5035840;28;20045;-65
2022/10/10 03:36:50;;;;;;;16.85;9.43;;;12.50;99.90;;;12.92;76.97;101107.50;5035848;28;20037;-64
2022/10/10 03:39:19;;;;;;;17.65;10.02;;;12.60;99.90;;;12.94;77.24;101104.81;5035699;28;20053;-64
2022/10/10 03:41:49;;;;;;;14.82;9.68;;;12.60;99.90;;;12.86;77.00;101102.25;5035768;28;20042;-65
2022/10/10 03:44:17;;;;;;;14.75;9.52;;;12.50;99.90;;;12.69;77.87;101098.88;5036042;28;20107;-65
2022/10/10 03:46:46;;;;;;;16.50;10.35;;;12.40;99.90;;;12.69;78.38;101104.19;5035704;28;20041;-65
2022/10/10 03:49:14;;;;;;;16.25;10.40;;;12.30;99.90;;;12.64;78.45;101106.88;5036148;28;20049;-65
2022/10/10 03:51:42;;;;;;;14.90;9.82;;;12.30;99.90;;;12.70;78.74;101100.63;5035831;28;20057;-65
2022/10/10 03:54:10;;;;;;;15.38;10.00;;;12.30;99.90;;;12.76;78.68;101107.63;5035523;28;20042;-65
2022/10/10 03:56:40;;;;;;;14.00;10.20;;;12.40;99.90;;;12.76;78.52;101113.84;5035804;28;20041;-65
2022/10/10 03:59:08;;;;;;;15.60;10.10;;;12.40;99.90;;;12.73;78.50;101111.22;5035683;28;20403;-65
2022/10/10 04:01:37;;;;;;;17.85;9.93;;;12.40;99.90;;;12.66;78.87;101109.50;5035636;28;20068;-65
2022/10/10 04:04:05;;;;;;;20.70;10.65;;;12.30;99.90;;;12.54;79.13;101109.63;5035641;28;20237;-65
2022/10/10 04:06:33;;;;;;;11.30;9.90;;;12.20;99.90;;;12.50;79.55;101102.59;5035243;28;20051;-65
2022/10/10 04:09:03;;;;;;;13.57;10.38;;;12.20;99.90;;;12.55;79.30;101109.63;5035265;28;20068;-65
2022/10/10 04:11:31;;;;;;;15.55;10.50;;;12.20;99.90;;;12.51;79.53;101099.03;5035234;28;20049;-65
2022/10/10 04:14:00;;;;;;;16.67;11.05;;;12.30;99.90;;;12.49;79.61;101095.50;5035166;28;20064;-65
2022/10/10 04:16:29;;;;;;;13.15;9.65;;;12.20;99.90;;;12.41;79.98;101105.28;5035377;28;20049;-65
2022/10/10 04:18:57;;;;;;;15.77;11.05;;;12.20;99.90;;;12.38;80.17;101102.69;5035049;28;20403;-65
2022/10/10 04:21:25;;;;;;;12.70;10.38;;;12.20;99.90;;;12.42;80.14;101089.38;5035382;28;20052;-65
2022/10/10 04:23:53;;;;;;;12.27;10.82;;;12.20;99.90;;;12.41;80.08;101097.34;5034029;28;20450;-65
2022/10/10 04:26:22;;;;;;;13.82;9.55;;;12.10;99.90;;;12.42;80.31;101088.50;5034780;28;20041;-65
2022/10/10 04:28:50;;;;;;;17.67;11.30;;;12.10;99.90;;;12.37;80.38;101092.94;5035212;28;20057;-65
2022/10/10 04:31:20;;;;;;;15.80;10.75;;;12.10;99.90;;;12.35;80.41;101094.75;5034831;28;20052;-65
2022/10/10 04:33:48;;;;;;;16.15;11.45;;;12.10;99.90;;;12.24;81.03;101093.94;5034811;28;20495;-64
2022/10/10 04:36:16;;;;;;;20.40;12.43;;;12.10;99.90;;;12.18;81.19;101094.88;5034731;28;20483;-65
2022/10/10 04:38:45;;;;;;;14.85;11.02;;;12.00;99.90;;;12.15;81.41;101094.03;5034692;28;20041;-64
2022/10/10 04:41:13;;;;;;;19.60;11.00;;;12.00;99.90;;;12.00;81.69;101099.44;5034812;28;20052;-65
2022/10/10 04:43:41;;;;;;;16.55;11.98;;;11.90;99.90;;;11.94;82.04;101099.47;5034853;28;20079;-65
2022/10/10 04:46:09;;;;;;;16.73;11.15;;;11.90;99.90;;;11.84;82.53;101092.47;5034808;28;20087;-64
2022/10/10 04:48:39;;;;;;;17.45;11.15;;;11.80;99.90;;;11.81;83.09;101101.31;5034803;28;20042;-64
2022/10/10 04:51:07;;;;;;;17.15;11.90;;;11.70;99.90;;;11.97;83.07;101096.78;5034988;28;20060;-65
2022/10/10 04:53:36;;;;;;;16.85;11.20;;;11.70;99.90;;;12.00;83.07;101100.28;5034351;28;20479;-64
2022/10/10 04:56:04;;;;;;;20.38;11.70;;;11.80;99.90;;;12.11;82.82;101102.88;5034560;28;20042;-64
2022/10/10 04:58:33;;;;;;;18.25;11.52;;;11.90;99.90;;;12.10;82.56;101107.31;5034500;28;20045;-64
2022/10/10 05:01:01;;;;;;;17.25;11.63;;;12.00;99.90;;;12.08;82.58;101108.22;5034111;28;20103;-64
2022/10/10 05:03:30;;;;;;;21.10;11.60;;;11.90;99.90;;;12.06;82.79;101112.66;5034028;28;20044;-64
2022/10/10 05:05:59;;;;;;;17.50;11.55;;;11.90;99.90;;;12.07;82.79;101117.06;5034165;28;20044;-64
2022/10/10 05:08:27;;;;;;;18.33;11.30;;;11.90;99.90;;;12.04;83.12;101112.63;5034612;28;20117;-65
2022/10/10 05:10:56;;;;;;;17.10;11.27;;;11.90;99.90;;;12.06;82.91;101117.97;5034336;28;20103;-65
2022/10/10 05:13:24;;;;;;;16.13;11.55;;;11.90;99.90;;;12.08;82.84;101114.38;5033951;28;20050;-65
2022/10/10 05:15:52;;;;;;;15.50;11.07;;;11.90;99.90;;;12.00;82.95;101097.66;5034015;28;20053;-64
2022/10/10 05:18:21;;;;;;;15.55;12.00;;;11.90;99.90;;;12.20;82.81;101121.38;5033871;28;20045;-65
2022/10/10 05:20:50;;;;;;;18.95;11.15;;;12.00;99.90;;;12.22;82.87;101117.81;5033760;28;20507;-65
2022/10/10 05:23:19;;;;;;;18.90;11.13;;;12.10;99.90;;;12.20;82.61;101113.41;5033871;28;20041;-64
2022/10/10 05:25:50;;;;;;;18.67;10.50;;;12.10;99.90;;;12.19;82.94;101119.63;5033817;28;20091;-64
2022/10/10 05:28:18;;;;;;;17.45;11.45;;;12.00;99.90;;;12.22;83.23;101116.94;5034102;28;20060;-64
2022/10/10 05:30:46;;;;;;;20.45;12.23;;;12.10;99.90;;;12.27;82.98;101117.81;5033681;28;20046;-65
2022/10/10 05:33:15;;;;;;;16.27;11.00;;;12.10;99.90;;;12.37;82.96;101124.78;5034152;28;20498;-65
2022/10/10 05:35:43;;;;;;;20.25;11.75;;;12.10;99.90;;;12.43;82.94;101119.44;5033539;28;20045;-64
2022/10/10 05:38:11;;;;;;;14.50;11.15;;;12.20;99.90;;;12.46;82.69;101122.06;5033703;28;20449;-65
2022/10/10 05:40:41;;;;;;;22.63;11.02;;;12.20;99.90;;;12.51;82.49;101136.16;5033470;28;20084;-64
2022/10/10 05:43:10;;;;;;;19.30;10.48;;;12.30;99.90;;;12.57;82.21;101131.72;5033573;28;20041;-65
2022/10/10 05:45:38;;;;;;;16.60;11.00;;;12.30;99.90;;;12.58;81.81;101125.50;5033666;28;20046;-65
2022/10/10 05:48:07;;;;;;;19.35;10.85;;;12.40;99.90;;;12.65;81.81;101128.97;5033405;28;20507;-64
2022/10/10 05:50:46;;;;;;;21.52;11.57;;;12.40;99.90;;;12.68;81.37;101118.31;5033332;28;20483;-64
2022/10/10 05:53:14;;;;;;;20.83;11.77;;;12.50;99.90;;;12.73;81.17;101136.88;5033875;28;20037;-65
2022/10/10 05:55:44;;;;;;;17.45;11.05;;;12.50;99.90;;;12.81;81.11;101125.31;5033251;28;20052;-64
2022/10/10 05:58:13;;;;;;;21.88;11.48;;;12.50;99.90;;;12.69;80.74;101104.19;5033257;28;20046;-64
2022/10/10 06:00:43;;;;;;;18.58;11.48;;;12.50;99.90;;;12.83;80.47;101118.22;5033122;28;20541;-65
2022/10/10 06:03:13;;;;;;;21.40;11.00;;;12.50;99.90;;;12.84;80.30;101122.59;5033094;28;20041;-65
2022/10/10 06:05:43;;;;;;;23.42;11.30;;;12.50;99.90;;;12.82;80.26;101129.72;5033502;28;20050;-65
2022/10/10 06:08:11;;;;;;;24.40;10.68;;;12.50;99.90;;;12.85;79.76;101137.66;5033121;28;20048;-65
2022/10/10 06:10:44;;;;;;;16.73;10.10;;;12.50;99.90;;;12.81;79.80;101124.41;5032964;28;20045;-65
2022/10/10 06:13:16;;;;;;;19.75;10.55;;;12.50;99.90;;;12.77;79.98;101120.91;5033509;28;20050;-65
2022/10/10 06:15:52;;;;;;;18.52;11.75;;;12.50;99.90;;;12.62;80.01;101107.75;5033023;28;20056;-65
2022/10/10 06:18:20;;;;;;;26.15;11.75;;;12.50;99.90;;;12.78;80.22;101119.13;5032993;28;20042;-65
2022/10/10 06:20:48;;;;;;;18.83;11.35;;;12.50;99.90;;;12.81;80.45;101121.75;5032890;28;20487;-65
2022/10/10 06:23:17;;;;;;;23.80;11.73;;;12.50;99.90;;;12.87;80.63;101122.59;5048370;28;20041;-65
2022/10/10 06:25:47;;;;;;;21.75;11.95;;;12.60;99.90;;;13.03;80.16;101125.94;5033135;28;20068;-65
2022/10/10 06:28:15;;;;;;;21.85;11.77;;;12.70;99.90;;;13.14;79.81;101135.59;5032746;28;20049;-65
2022/10/10 06:30:47;;;;;;;27.92;11.63;;;12.80;99.90;;;13.31;79.48;101152.25;5033203;28;20559;-65
2022/10/10 06:33:17;;;;;;;19.48;12.32;;;13.00;99.90;;;13.61;78.99;101136.84;5033437;28;20055;-65
2022/10/10 06:35:48;;;;;;;22.08;11.10;;;13.20;99.90;;;13.65;78.52;101139.44;5033449;28;20052;-65
2022/10/10 06:38:17;;;;;;;19.02;11.30;;;13.30;99.90;;;13.68;78.23;101139.41;5033043;28;20045;-65
2022/10/10 06:40:47;;;;;;;18.70;10.65;;;13.40;99.90;;;13.62;77.58;101142.16;5032963;28;20483;-65
2022/10/10 06:43:16;;;;;;;20.95;10.32;;;13.30;99.90;;;13.58;77.51;101120.03;5033228;28;20045;-65
2022/10/10 06:45:47;;;;;;;15.45;10.63;;;13.40;99.90;;;13.62;77.67;101141.25;5032757;28;20041;-65
2022/10/10 06:48:15;;;;;;;17.10;10.57;;;13.30;99.90;;;13.66;77.80;101148.28;5032775;28;20052;-65
2022/10/10 06:50:44;;;;;;;16.27;10.80;;;13.30;99.90;;;13.79;77.98;101153.44;5032400;28;20033;-66
2022/10/10 06:53:12;;;;;;;20.60;11.23;;;13.40;99.90;;;13.99;77.73;101158.50;5031486;28;20440;-65
2022/10/10 06:55:47;;;;;;;17.88;10.80;;;13.70;99.90;;;14.19;77.40;101159.97;5032860;28;20052;-66
2022/10/10 06:58:15;;;;;;;20.67;11.60;;;13.90;99.90;;;14.37;76.40;101158.84;5032690;28;20068;-65
2022/10/10 07:00:50;;;;;;;18.42;10.77;;;14.10;99.90;;;14.41;76.34;101163.22;5032851;28;20099;-65
2022/10/10 07:03:19;;;;;;;17.88;11.77;;;14.20;99.90;;;14.46;76.47;101167.56;5032739;28;20049;-65
2022/10/10 07:05:50;;;;;;;19.15;11.38;;;14.20;99.90;;;14.57;76.05;101175.41;5032632;28;20045;-64
2022/10/10 07:08:19;;;;;;;20.85;11.45;;;14.30;99.90;;;14.67;76.07;101179.69;5032881;28;20059;-67
2022/10/10 07:10:49;;;;;;;20.60;11.35;;;14.40;99.90;;;14.77;75.90;101177.75;5032792;28;20042;-64
2022/10/10 07:13:18;;;;;;;20.25;11.40;;;14.50;99.90;;;14.75;76.29;101176.91;5033013;28;20052;-65
2022/10/10 07:15:47;;;;;;;17.73;11.95;;;14.50;99.90;;;14.93;76.15;101187.22;5032821;28;20037;-64
2022/10/10 07:18:17;;;;;;;15.60;10.90;;;14.60;99.90;;;14.96;76.11;101180.03;5032921;28;20045;-63
2022/10/10 07:20:45;;;;;;;15.55;11.18;;;14.70;99.90;;;15.03;76.71;101175.50;5033061;28;20051;-65
2022/10/10 07:23:14;;;;;;;17.02;11.23;;;14.80;99.90;;;15.04;77.23;101186.13;5032320;28;20049;-64
2022/10/10 07:25:43;;;;;;;21.40;12.20;;;14.80;99.90;;;15.38;77.39;101171.28;5033592;28;20052;-66
2022/10/10 07:28:13;;;;;;;20.23;11.43;;;15.10;99.90;;;15.69;76.95;101171.59;5036350;28;20050;-66
2022/10/10 07:30:42;;;;;;;18.10;11.38;;;15.40;99.90;;;16.14;76.61;101201.75;5036589;28;20049;-66
2022/10/10 07:33:11;;;;;;;19.60;10.65;;;15.80;99.90;;;16.43;74.86;101169.06;5035972;28;20183;-67
2022/10/10 07:35:39;;;;;;;17.58;11.52;;;16.20;99.90;;;16.89;74.16;101193.78;5036144;28;20045;-67
2022/10/10 07:38:08;;;;;;;15.25;10.27;;;16.60;99.90;;;17.33;72.71;101196.19;5036122;28;20483;-68
2022/10/10 07:40:39;;;;;;;18.30;10.02;;;17.00;99.90;;;17.73;71.65;101193.31;5036056;28;20056;-60
2022/10/10 07:43:07;;;;;;;17.90;10.55;;;17.50;99.90;;;17.72;70.17;101192.44;5035949;28;20049;-61
2022/10/10 07:45:37;;;;;;;19.30;10.38;;;17.50;99.90;;;17.78;69.39;101200.31;5035907;28;20041;-60
2022/10/10 07:48:05;;;;;;;17.17;10.27;;;17.60;99.90;;;17.68;69.26;101203.25;5035889;28;20044;-61
2022/10/10 07:50:34;;;;;;;23.77;10.88;;;17.50;99.90;;;17.53;69.31;101209.03;5035890;28;20367;-62
2022/10/10 07:53:02;;;;;;;20.83;10.38;;;17.30;99.90;;;17.47;69.72;101210.06;5036135;28;20120;-62
2022/10/10 07:55:30;;;;;;;17.90;10.15;;;17.20;99.90;;;17.30;70.11;101206.97;5036097;28;20041;-60
2022/10/10 07:58:01;;;;;;;17.75;10.20;;;17.00;99.90;;;17.26;70.58;101212.44;5035740;28;20487;-61
2022/10/10 08:00:30;;;;;;;18.55;10.27;;;17.00;99.90;;;17.19;70.72;101202.81;5035773;28;20526;-60
2022/10/10 08:02:59;;;;;;;19.02;10.93;;;16.90;99.90;;;17.23;70.98;101217.88;5035320;28;20046;-61
2022/10/10 08:05:28;;;;;;;19.23;10.40;;;16.80;99.90;;;17.12;71.21;101221.69;5034835;28;20057;-60
2022/10/10 08:07:56;;;;;;;15.70;10.88;;;16.70;99.90;;;17.08;71.47;101225.34;5035295;28;20084;-61
2022/10/10 08:10:24;;;;;;;20.27;10.05;;;16.70;99.90;;;17.07;71.85;101230.75;5035220;28;20045;-72
2022/10/10 08:12:52;;;;;;;20.08;11.40;;;16.70;99.90;;;17.06;72.00;101229.88;5035182;28;20498;-72
2022/10/10 08:15:21;;;;;;;15.05;10.48;;;16.70;99.90;;;17.06;72.20;101235.22;5035157;28;20049;-71
2022/10/10 08:17:49;;;;;;;19.65;9.07;;;16.70;99.90;;;17.01;72.52;101230.91;5035089;28;20041;-71
2022/10/10 08:20:19;;;;;;;18.23;9.18;;;16.60;99.90;;;16.87;72.62;101217.00;5035117;28;20487;-71
2022/10/10 08:22:47;;;;;;;16.85;9.60;;;16.60;99.90;;;16.95;72.98;101233.72;5035186;28;20056;-72
2022/10/10 08:25:16;;;;;;;19.73;10.18;;;16.60;99.90;;;16.95;73.17;101241.72;5034950;28;20442;-72
2022/10/10 08:27:44;;;;;;;16.70;9.10;;;16.60;99.90;;;16.94;73.55;101238.19;5035021;28;20049;-71
2022/10/10 08:30:13;;;;;;;12.93;8.60;;;16.60;99.90;;;16.45;73.50;101165.47;5034159;28;20053;-70
2022/10/10 08:32:42;;;;;;;15.82;8.65;;;16.50;99.90;;;16.84;73.82;101236.63;5035406;28;20060;-71
2022/10/10 08:35:10;;;;;;;20.13;9.00;;;16.50;99.90;;;16.78;74.00;101233.25;5034803;28;20051;-70
2022/10/10 08:37:39;;;;;;;19.20;9.02;;;16.40;99.90;;;16.33;73.96;101168.41;5034386;28;20045;-68
2022/10/10 08:40:11;;;;;;;16.70;8.68;;;16.40;99.90;;;16.73;74.09;101240.47;5035249;28;20041;-73
2022/10/10 08:42:44;;;;;;;16.85;8.90;;;16.40;99.90;;;16.67;74.46;101246.84;5033616;28;20132;-69
2022/10/10 08:45:23;;;;;;;18.40;8.60;;;16.30;99.90;;;16.69;74.68;101245.03;5035171;28;20111;-69
2022/10/10 08:47:58;;;;;;;19.75;9.07;;;16.30;99.90;;;16.77;74.95;101244.84;5034669;28;20038;-70
2022/10/10 08:50:31;;;;;;;17.25;9.10;;;16.40;99.90;;;16.78;74.94;101247.47;5034768;28;20049;-70
2022/10/10 08:53:06;;;;;;;17.85;8.93;;;16.40;99.90;;;16.73;75.20;101246.72;5034834;28;20056;-69
2022/10/10 08:55:38;;;;;;;18.42;8.95;;;16.40;99.90;;;16.38;75.19;101182.50;5034926;28;20057;-69
2022/10/10 08:58:18;;;;;;;18.33;9.52;;;16.40;99.90;;;16.89;75.54;101258.81;5034468;28;20069;-69
2022/10/10 09:00:50;;;;;;;21.92;10.93;;;16.50;99.90;;;16.80;75.68;101256.31;5034615;28;20046;-69
2022/10/10 09:03:26;;;;;;;17.08;10.32;;;16.50;99.90;;;16.81;75.75;101263.44;5034502;28;20042;-69
2022/10/10 09:06:19;;;;;;;18.25;10.20;;;16.50;99.90;;;16.47;76.27;101171.63;5034122;28;20049;-69
2022/10/10 09:09:00;;;;;;;19.05;10.65;;;16.60;99.90;;;17.06;76.20;101261.94;5034187;28;20056;-69
2022/10/10 09:11:47;;;;;;;18.25;9.80;;;16.70;99.90;;;17.13;75.86;101258.19;5034767;28;20051;-70
2022/10/10 09:14:29;;;;;;;17.90;9.73;;;16.80;99.90;;;17.22;75.70;101261.53;5034102;28;20049;-70
2022/10/10 09:17:03;;;;;;;20.55;10.05;;;16.90;99.90;;;17.28;75.69;101262.28;5034081;28;20399;-70
2022/10/10 09:19:50;;;;;;;15.05;9.63;;;16.90;99.90;;;17.62;75.53;101268.53;5034110;28;20412;-69
2022/10/10 09:22:26;;;;;;;17.58;9.27;;;17.20;99.90;;;17.75;74.82;101271.78;5034156;28;20052;-72
2022/10/10 09:25:03;;;;;;;17.80;10.10;;;17.40;99.90;;;17.80;73.63;101284.09;5049887;28;20073;-73
2022/10/10 09:27:37;;;;;;;15.40;9.10;;;17.50;99.90;;;17.75;73.10;101295.84;5033784;28;20088;-72
2022/10/10 09:30:14;;;;;;;16.02;8.98;;;17.40;99.90;;;17.70;73.37;101289.72;5033849;28;20048;-73
2022/10/10 09:32:48;;;;;;;17.83;9.30;;;17.40;99.90;;;17.72;73.75;101294.13;5033721;28;20128;-73
2022/10/10 09:35:21;;;;;;;14.23;9.38;;;17.40;99.90;;;17.75;74.15;101299.38;5033657;28;20049;-72
2022/10/10 09:37:53;;;;;;;14.30;9.02;;;17.40;99.90;;;17.69;73.95;101293.34;5034234;28;20049;-72
2022/10/10 09:40:28;;;;;;;16.58;9.32;;;17.30;99.90;;;17.71;74.17;101310.22;5033721;28;20053;-71
2022/10/10 09:42:57;;;;;;;14.32;9.43;;;17.30;99.90;;;17.77;74.47;101307.38;5049148;28;20453;-70
2022/10/10 09:45:32;;;;;;;15.50;9.70;;;17.40;99.90;;;17.77;74.66;101315.38;5034307;28;20430;-69
2022/10/10 09:48:01;;;;;;;22.73;10.93;;;17.40;99.90;;;17.64;74.51;101313.97;5033504;28;20475;-68
2022/10/10 09:50:29;;;;;;;19.05;10.20;;;17.30;99.90;;;17.62;74.70;101315.81;5033796;28;20087;-67
2022/10/10 09:52:58;;;;;;;13.77;9.40;;;17.30;99.90;;;17.63;74.88;101328.28;5033646;28;20382;-69
2022/10/10 09:55:33;;;;;;;17.90;9.80;;;17.20;99.90;;;17.66;75.32;101325.50;5033510;28;20041;-67
2022/10/10 09:58:12;;;;;;;16.33;10.23;;;17.30;99.90;;;17.71;75.50;101339.66;5048936;28;20480;-70
2022/10/10 10:00:40;;;;;;;16.95;9.05;;;17.30;99.90;;;17.14;75.41;101227.00;5033354;28;20514;-68
2022/10/10 10:03:15;;;;;;;19.15;9.65;;;17.30;99.90;;;17.81;75.54;101331.34;5033177;28;20164;-70
2022/10/10 10:05:53;;;;;;;13.93;8.75;;;17.40;99.90;;;17.80;75.68;101331.38;5033168;28;20048;-69
2022/10/10 10:08:28;;;;;;;15.77;8.80;;;17.40;99.90;;;17.77;75.38;101334.13;5033734;28;20041;-68
2022/10/10 10:10:59;;;;;;;15.95;8.40;;;17.40;99.90;;;17.83;75.68;101334.84;5033046;28;20042;-70
2022/10/10 10:13:31;;;;;;;13.73;8.68;;;17.50;99.90;;;17.87;75.55;101341.88;5032061;28;20513;-70
2022/10/10 10:16:05;;;;;;;16.58;9.20;;;17.50;99.90;;;17.75;75.72;101346.69;5033396;28;20124;-70
2022/10/10 10:18:41;;;;;;;18.80;8.98;;;17.40;99.90;;;17.81;75.94;101349.19;5033372;28;20132;-71
2022/10/10 10:21:18;;;;;;;23.38;9.43;;;17.40;99.90;;;17.74;76.08;101356.50;5032964;28;20050;-70